Time;durP1;ratioP1;P1;durP2;ratioP2;P2;SDS_P1;SDS_P2;PMS_P1;PMS_P2;Temp;Humidity;BMP_temperature;BMP_pressure;BME280_temperature;BME280_humidity;BME280_pressure;Samples;Min_cycle;Max_cycle;Signal;HPM_P1;HPM_P2
2022/12/20 00:00:02;;;;;;;0.20;0.20;;;15.40;99.90;;;;;;5055562;28;20025;-67
2022/12/20 00:02:27;;;;;;;0.28;0.28;;;15.40;99.90;;;;;;5061260;28;20045;-66
2022/12/20 00:04:53;;;;;;;0.20;0.20;;;15.40;99.90;;;;;;5064809;28;20503;-67
2022/12/20 00:07:18;;;;;;;0.20;0.20;;;15.40;99.90;;;;;;5062506;28;20384;-66
2022/12/20 00:09:44;;;;;;;0.20;0.20;;;15.40;99.90;;;;;;5050983;28;20025;-66
2022/12/20 00:12:10;;;;;;;0.60;0.60;;;15.40;99.90;;;;;;5049678;28;20035;-67
2022/12/20 00:14:35;;;;;;;4.95;1.45;;;15.40;99.90;;;;;;5050820;28;20104;-66
2022/12/20 00:17:01;;;;;;;1.50;1.02;;;15.40;99.90;;;;;;5050695;28;20025;-66
2022/12/20 00:19:27;;;;;;;0.20;0.20;;;15.30;99.90;;;;;;5058993;28;20029;-66
2022/12/20 00:21:52;;;;;;;4.60;2.40;;;15.30;99.90;;;;;;5048609;28;20639;-66
2022/12/20 00:24:18;;;;;;;0.20;0.20;;;15.30;99.90;;;;;;5048516;28;20517;-65
2022/12/20 00:26:44;;;;;;;0.20;0.20;;;15.30;99.90;;;;;;5052147;28;20056;-66
2022/12/20 00:29:09;;;;;;;0.20;0.20;;;15.30;99.90;;;;;;5071571;28;20020;-66
2022/12/20 00:31:35;;;;;;;0.20;0.20;;;15.30;99.90;;;;;;5064233;28;20032;-67
2022/12/20 00:34:01;;;;;;;0.20;0.20;;;15.40;99.90;;;;;;5069916;28;20024;-67
2022/12/20 00:36:28;;;;;;;0.20;0.20;;;15.40;99.90;;;;;;5074529;28;20032;-66
2022/12/20 00:38:55;;;;;;;0.20;0.20;;;15.40;99.90;;;;;;5070779;28;20069;-67
2022/12/20 00:41:25;;;;;;;0.40;0.40;;;15.50;99.90;;;;;;5052297;28;20431;-67
2022/12/20 00:43:52;;;;;;;1.10;1.10;;;15.50;99.90;;;;;;5069208;28;20020;-67
2022/12/20 00:46:19;;;;;;;0.20;0.20;;;15.50;99.90;;;;;;5071765;28;20047;-67
2022/12/20 00:48:45;;;;;;;0.73;0.73;;;15.50;99.90;;;;;;5043027;28;20025;-66
2022/12/20 00:51:15;;;;;;;0.20;0.20;;;15.40;99.90;;;;;;5063649;28;20012;-68
2022/12/20 00:53:41;;;;;;;0.20;0.20;;;15.40;99.90;;;;;;5071737;28;20029;-68
2022/12/20 00:56:07;;;;;;;0.20;0.20;;;15.40;99.90;;;;;;5062022;28;20509;-68
2022/12/20 00:58:35;;;;;;;0.20;0.20;;;15.40;99.90;;;;;;5065631;28;20611;-66
2022/12/20 01:01:02;;;;;;;0.20;0.20;;;15.50;99.90;;;;;;5055664;28;20020;-66
2022/12/20 01:03:28;;;;;;;0.77;0.77;;;15.50;99.90;;;;;;5065547;28;20041;-66
2022/12/20 01:05:57;;;;;;;0.20;0.20;;;15.50;99.90;;;;;;5068243;28;20090;-67
2022/12/20 01:08:24;;;;;;;0.20;0.20;;;15.60;99.90;;;;;;5052804;28;20033;-67
2022/12/20 01:11:12;;;;;;;0.20;0.20;;;15.60;99.90;;;;;;5053757;28;20047;-66
2022/12/20 01:13:40;;;;;;;0.20;0.20;;;15.50;99.90;;;;;;5053751;28;20040;-66
2022/12/20 01:16:08;;;;;;;0.20;0.20;;;15.50;99.90;;;;;;5034080;28;20021;-67
2022/12/20 01:18:34;;;;;;;0.38;0.38;;;15.50;99.90;;;;;;5033659;28;20030;-66
2022/12/20 01:21:02;;;;;;;0.50;0.50;;;15.50;99.90;;;;;;5033843;28;20106;-67
2022/12/20 01:23:27;;;;;;;0.20;0.20;;;15.50;99.90;;;;;;5037353;28;20025;-66
2022/12/20 01:25:53;;;;;;;0.20;0.20;;;15.50;99.90;;;;;;5053284;28;20104;-65
2022/12/20 01:28:19;;;;;;;0.20;0.20;;;15.50;99.90;;;;;;5053536;28;20059;-67
2022/12/20 01:30:44;;;;;;;0.20;0.20;;;15.50;99.90;;;;;;5053291;28;20131;-66
2022/12/20 01:33:10;;;;;;;0.30;0.30;;;15.60;99.90;;;;;;5052073;28;20028;-67
2022/12/20 01:35:36;;;;;;;0.20;0.20;;;15.60;99.90;;;;;;5053525;28;20036;-66
2022/12/20 01:38:02;;;;;;;0.20;0.20;;;15.60;99.90;;;;;;5053348;28;20501;-66
2022/12/20 01:40:27;;;;;;;0.20;0.20;;;15.60;99.90;;;;;;5052883;28;20036;-67
2022/12/20 01:42:53;;;;;;;0.20;0.20;;;15.60;99.90;;;;;;5051865;28;20055;-67
2022/12/20 01:45:27;;;;;;;0.20;0.20;;;15.60;99.90;;;;;;5053087;28;20401;-67
2022/12/20 01:47:54;;;;;;;3.00;2.85;;;15.60;99.90;;;;;;5052983;28;20660;-67
2022/12/20 01:50:20;;;;;;;0.40;0.40;;;15.60;99.90;;;;;;5051529;28;20107;-66
2022/12/20 01:52:47;;;;;;;0.20;0.20;;;15.60;99.90;;;;;;5053066;28;20482;-66
2022/12/20 01:55:18;;;;;;;0.20;0.20;;;15.50;99.90;;;;;;5052850;28;20029;-66
2022/12/20 01:57:50;;;;;;;0.20;0.20;;;15.50;99.90;;;;;;5052874;28;20036;-66
2022/12/20 02:00:17;;;;;;;0.20;0.20;;;15.50;99.90;;;;;;5052903;28;20040;-67
2022/12/20 02:02:46;;;;;;;0.20;0.20;;;15.50;99.90;;;;;;5052599;28;20528;-67
2022/12/20 02:05:13;;;;;;;0.20;0.20;;;15.50;99.90;;;;;;5052818;28;20020;-65
2022/12/20 02:07:42;;;;;;;0.20;0.20;;;15.50;99.90;;;;;;5052608;28;20482;-67
2022/12/20 02:10:10;;;;;;;0.20;0.20;;;15.50;99.90;;;;;;5052984;28;20052;-66
2022/12/20 02:12:44;;;;;;;0.95;0.95;;;15.40;99.90;;;;;;5051250;28;20167;-67
2022/12/20 02:15:26;;;;;;;0.35;0.35;;;15.50;99.90;;;;;;5060698;28;20115;-66
2022/12/20 02:18:04;;;;;;;0.38;0.38;;;15.40;99.90;;;;;;5045587;28;20092;-67
2022/12/20 02:20:39;;;;;;;1.23;1.20;;;15.50;99.90;;;;;;5052998;28;20486;-67
2022/12/20 02:23:23;;;;;;;0.40;0.40;;;15.50;99.90;;;;;;5051303;28;20025;-67
2022/12/20 02:26:07;;;;;;;0.88;0.88;;;15.40;99.90;;;;;;5067317;28;20029;-68
2022/12/20 02:28:54;;;;;;;0.30;0.30;;;15.50;99.90;;;;;;5047151;28;20025;-67
2022/12/20 02:31:26;;;;;;;0.20;0.20;;;15.40;99.90;;;;;;5064662;28;20023;-68
2022/12/20 02:33:56;;;;;;;0.20;0.20;;;15.40;99.90;;;;;;5053089;28;20035;-65
2022/12/20 02:36:22;;;;;;;0.20;0.20;;;15.40;99.90;;;;;;5052076;28;20021;-66
2022/12/20 02:38:48;;;;;;;0.20;0.20;;;15.40;99.90;;;;;;5051165;28;20087;-67
2022/12/20 02:41:29;;;;;;;0.20;0.20;;;15.40;99.90;;;;;;5052132;28;20017;-67
2022/12/20 02:46:46;;;;;;;0.20;0.20;;;15.40;99.90;;;;;;5045008;28;20044;-67
2022/12/20 02:49:19;;;;;;;0.25;0.25;;;15.40;99.90;;;;;;5053680;28;20017;-66
2022/12/20 02:51:47;;;;;;;0.50;0.50;;;15.30;99.90;;;;;;5070969;28;20032;-67
2022/12/20 02:54:15;;;;;;;0.20;0.20;;;15.40;99.90;;;;;;5070854;28;20055;-65
2022/12/20 02:56:54;;;;;;;0.20;0.20;;;15.00;99.90;;;;;;5060198;28;20029;-65
2022/12/20 02:59:29;;;;;;;2.75;2.60;;;14.90;99.90;;;;;;5048561;28;20566;-67
2022/12/20 03:01:56;;;;;;;0.20;0.20;;;14.90;99.90;;;;;;5060713;28;20603;-66
2022/12/20 03:04:27;;;;;;;0.20;0.20;;;14.90;99.90;;;;;;5051166;28;20035;-67
2022/12/20 03:06:59;;;;;;;11.10;1.63;;;14.90;99.90;;;;;;5051590;28;20095;-67
2022/12/20 03:09:25;;;;;;;0.20;0.20;;;14.90;99.90;;;;;;5051590;28;20053;-67
2022/12/20 03:11:51;;;;;;;2.83;2.40;;;14.90;99.90;;;;;;5051353;28;20646;-66
2022/12/20 03:14:17;;;;;;;0.88;0.88;;;14.90;99.90;;;;;;5051506;28;20113;-66
2022/12/20 03:16:43;;;;;;;0.30;0.30;;;14.90;99.90;;;;;;5051504;28;20111;-66
2022/12/20 03:19:08;;;;;;;0.20;0.20;;;14.90;99.90;;;;;;5051329;28;20021;-67
2022/12/20 03:21:34;;;;;;;0.30;0.30;;;14.90;99.90;;;;;;5050850;28;20032;-66
2022/12/20 03:24:00;;;;;;;0.20;0.20;;;14.90;99.90;;;;;;5051108;28;20021;-67
2022/12/20 03:26:26;;;;;;;0.20;0.20;;;14.90;99.90;;;;;;5051167;28;20033;-67
2022/12/20 03:28:51;;;;;;;0.20;0.20;;;15.00;99.90;;;;;;5051117;28;20116;-66
2022/12/20 03:31:17;;;;;;;12.27;3.88;;;15.00;99.90;;;;;;5051167;28;20032;-66
2022/12/20 03:33:42;;;;;;;1.48;1.02;;;15.00;99.90;;;;;;5051355;28;20021;-66
2022/12/20 03:36:08;;;;;;;0.43;0.43;;;15.00;99.90;;;;;;5051099;28;20467;-67
2022/12/20 03:38:34;;;;;;;0.20;0.20;;;15.00;99.90;;;;;;5051020;28;20025;-67
2022/12/20 03:40:59;;;;;;;0.82;0.82;;;15.00;99.90;;;;;;5050831;28;20074;-67
2022/12/20 03:43:25;;;;;;;0.45;0.45;;;15.00;99.90;;;;;;5050083;28;20037;-67
2022/12/20 03:45:51;;;;;;;0.30;0.30;;;15.00;99.90;;;;;;5049102;28;20029;-66
2022/12/20 03:48:16;;;;;;;0.20;0.20;;;15.10;99.90;;;;;;5049961;28;20460;-67
2022/12/20 03:50:42;;;;;;;0.28;0.28;;;15.00;99.90;;;;;;5051165;28;20021;-66
2022/12/20 03:53:08;;;;;;;0.20;0.20;;;15.00;99.90;;;;;;5055883;28;20059;-66
2022/12/20 03:55:33;;;;;;;0.30;0.30;;;15.10;99.90;;;;;;5057227;28;20021;-66
2022/12/20 03:57:59;;;;;;;0.20;0.20;;;15.10;99.90;;;;;;5059403;28;20500;-66
2022/12/20 04:00:25;;;;;;;0.20;0.20;;;15.10;43.10;;;;;;5055953;28;20033;-66
2022/12/20 04:02:51;;;;;;;0.20;0.20;;;15.10;99.90;;;;;;5062180;28;20400;-66
2022/12/20 04:05:17;;;;;;;0.20;0.20;;;15.10;99.90;;;;;;5057572;28;20028;-65
2022/12/20 04:07:44;;;;;;;0.25;0.25;;;15.00;2.00;;;;;;5054811;28;20032;-66
2022/12/20 04:10:10;;;;;;;0.40;0.40;;;15.00;99.90;;;;;;5055002;28;20408;-66
2022/12/20 04:12:36;;;;;;;0.50;0.50;;;15.00;99.90;;;;;;5054790;28;20025;-67
2022/12/20 04:15:02;;;;;;;0.20;0.20;;;15.00;99.90;;;;;;5054569;28;20021;-67
2022/12/20 04:17:28;;;;;;;0.20;0.20;;;15.00;99.90;;;;;;5054857;28;20124;-67
2022/12/20 04:19:54;;;;;;;0.20;0.20;;;14.90;99.90;;;;;;5054687;28;20416;-66
2022/12/20 04:22:19;;;;;;;0.20;0.20;;;14.90;98.20;;;;;;5054753;28;20029;-65
2022/12/20 04:24:45;;;;;;;0.30;0.30;;;14.80;8.10;;;;;;5054533;28;20489;-66
2022/12/20 04:27:11;;;;;;;0.57;0.57;;;14.80;1.00;;;;;;5054508;28;20090;-66
2022/12/20 04:29:37;;;;;;;0.20;0.20;;;14.80;1.00;;;;;;5054607;28;20103;-66
2022/12/20 04:32:03;;;;;;;0.20;0.20;;;14.80;1.00;;;;;;5054378;28;20100;-67
2022/12/20 04:34:29;;;;;;;0.55;0.55;;;14.80;1.00;;;;;;5054399;28;20489;-66
2022/12/20 04:36:54;;;;;;;0.20;0.20;;;14.80;99.90;;;;;;5054332;28;20032;-66
2022/12/20 04:39:20;;;;;;;0.20;0.20;;;14.70;99.90;;;;;;5053171;28;20017;-66
2022/12/20 04:41:46;;;;;;;0.20;0.20;;;14.80;99.90;;;;;;5054382;28;20496;-67
2022/12/20 04:44:11;;;;;;;0.20;0.20;;;14.70;99.90;;;;;;5054231;28;20013;-67
2022/12/20 04:46:37;;;;;;;0.20;0.20;;;14.70;99.90;;;;;;5054243;28;20025;-66
2022/12/20 04:49:03;;;;;;;0.20;0.20;;;14.70;99.90;;;;;;5053998;28;20021;-66
2022/12/20 04:51:29;;;;;;;0.20;0.20;;;14.70;99.90;;;;;;5053971;28;20036;-66
2022/12/20 04:53:55;;;;;;;0.50;0.50;;;14.70;99.90;;;;;;5054118;28;20031;-65
2022/12/20 04:56:27;;;;;;;0.20;0.20;;;14.80;99.90;;;;;;5054137;28;20025;-65
2022/12/20 04:58:54;;;;;;;0.20;0.20;;;14.80;99.90;;;;;;5052426;28;20021;-66
2022/12/20 05:01:20;;;;;;;0.30;0.30;;;14.80;99.90;;;;;;5059660;28;20036;-66
2022/12/20 05:03:48;;;;;;;0.85;0.85;;;14.80;99.90;;;;;;5061954;28;20029;-66
2022/12/20 05:06:14;;;;;;;0.20;0.20;;;14.80;99.90;;;;;;5066861;28;20116;-65
2022/12/20 05:08:40;;;;;;;0.20;0.20;;;14.80;99.90;;;;;;5067202;28;20032;-65
2022/12/20 05:11:07;;;;;;;0.20;0.20;;;14.70;99.90;;;;;;5053170;28;20025;-66
2022/12/20 05:13:33;;;;;;;0.20;0.20;;;14.70;99.90;;;;;;5053782;28;20551;-67
2022/12/20 05:15:59;;;;;;;0.20;0.20;;;14.70;99.90;;;;;;5052925;28;20485;-66
2022/12/20 05:18:25;;;;;;;0.57;0.57;;;14.70;99.90;;;;;;5053671;28;20031;-67
2022/12/20 05:26:16;;;;;;;7.68;1.85;;;14.60;99.90;;;;;;5053635;28;20374;-66
2022/12/20 05:26:25;;;;;;;0.20;0.20;;;14.60;99.90;;;;;;5033650;28;20044;-66
2022/12/20 05:28:51;;;;;;;0.32;0.32;;;14.60;99.90;;;;;;5049068;28;20412;-66
2022/12/20 05:31:17;;;;;;;0.20;0.20;;;14.60;99.90;;;;;;5053384;28;20017;-67
2022/12/20 05:33:43;;;;;;;0.20;0.20;;;14.60;99.90;;;;;;5057838;28;20033;-66
2022/12/20 05:36:09;;;;;;;1.02;1.02;;;14.50;99.90;;;;;;5063306;28;20029;-66
2022/12/20 05:38:35;;;;;;;0.20;0.20;;;14.50;99.90;;;;;;5051151;28;20025;-67
2022/12/20 05:41:01;;;;;;;0.20;0.20;;;14.50;99.90;;;;;;5051282;28;20024;-66
2022/12/20 05:43:26;;;;;;;0.20;0.20;;;14.50;99.90;;;;;;5062724;28;20024;-66
2022/12/20 05:45:52;;;;;;;0.20;0.20;;;14.50;99.90;;;;;;5057939;28;20159;-66
2022/12/20 05:48:19;;;;;;;0.28;0.28;;;14.50;99.90;;;;;;5051949;28;20032;-65
2022/12/20 05:50:46;;;;;;;0.20;0.20;;;14.50;99.90;;;;;;5061134;28;20031;-65
2022/12/20 05:53:12;;;;;;;0.50;0.50;;;14.40;99.90;;;;;;5063609;28;20035;-65
2022/12/20 05:55:50;;;;;;;10.60;5.55;;;14.40;99.90;;;;;;5051554;28;20056;-65
2022/12/20 05:58:16;;;;;;;0.20;0.20;;;14.40;99.90;;;;;;5052032;28;20036;-65
2022/12/20 06:00:43;;;;;;;0.20;0.20;;;14.30;99.90;;;;;;5051838;28;20497;-65
2022/12/20 06:03:10;;;;;;;0.20;0.20;;;14.40;99.90;;;;;;5059376;28;20052;-64
2022/12/20 06:05:36;;;;;;;0.30;0.30;;;14.40;99.90;;;;;;5058247;28;20107;-64
2022/12/20 06:08:04;;;;;;;6.68;0.93;;;14.50;99.90;;;;;;5058669;28;20047;-66
2022/12/20 06:10:29;;;;;;;1.13;0.98;;;14.60;99.90;;;;;;5060625;28;20047;-64
2022/12/20 06:12:55;;;;;;;0.20;0.20;;;14.60;99.90;;;;;;5070196;28;20393;-66
2022/12/20 06:15:21;;;;;;;6.60;2.55;;;14.60;99.90;;;;;;5052637;28;20025;-66
2022/12/20 06:17:46;;;;;;;0.20;0.20;;;14.60;99.90;;;;;;5051374;28;20035;-66
2022/12/20 06:20:12;;;;;;;0.20;0.20;;;14.60;99.90;;;;;;5071779;28;20389;-66
2022/12/20 06:22:38;;;;;;;0.30;0.30;;;14.60;99.90;;;;;;5069381;28;20074;-66
2022/12/20 06:25:04;;;;;;;0.25;0.25;;;14.70;99.90;;;;;;5052529;28;20028;-65
2022/12/20 06:27:30;;;;;;;0.20;0.20;;;14.60;99.90;;;;;;5053201;28;20045;-65
2022/12/20 06:29:56;;;;;;;0.20;0.20;;;14.70;99.90;;;;;;5053114;28;20075;-65
2022/12/20 06:32:21;;;;;;;0.20;0.20;;;14.70;99.90;;;;;;5062646;28;20646;-65
2022/12/20 06:34:47;;;;;;;0.20;0.20;;;14.70;99.90;;;;;;5051347;28;20029;-66
2022/12/20 06:37:13;;;;;;;0.20;0.20;;;14.70;99.90;;;;;;5052942;28;20150;-66
2022/12/20 06:39:39;;;;;;;0.20;0.20;;;14.70;99.90;;;;;;5065405;28;20024;-66
2022/12/20 06:42:05;;;;;;;1.55;1.45;;;14.80;99.90;;;;;;5056726;28;20086;-66
2022/12/20 06:44:31;;;;;;;0.20;0.20;;;14.80;99.90;;;;;;5032201;28;20021;-65
2022/12/20 06:46:57;;;;;;;0.20;0.20;;;14.90;99.90;;;;;;5032022;28;20045;-65
2022/12/20 06:49:22;;;;;;;0.60;0.60;;;14.90;99.90;;;;;;5050656;28;20025;-65
2022/12/20 06:51:48;;;;;;;0.20;0.20;;;14.90;99.90;;;;;;5050313;28;20459;-65
2022/12/20 06:54:14;;;;;;;0.40;0.40;;;15.00;99.90;;;;;;5054932;28;20021;-65
2022/12/20 06:56:41;;;;;;;0.20;0.20;;;14.90;99.90;;;;;;5051592;28;20025;-64
2022/12/20 06:59:06;;;;;;;0.20;0.20;;;14.90;99.90;;;;;;5053397;28;20021;-65
2022/12/20 07:01:32;;;;;;;0.20;0.20;;;14.90;99.90;;;;;;5053375;28;20143;-65
2022/12/20 07:03:58;;;;;;;0.20;0.20;;;15.00;99.90;;;;;;5062335;28;20428;-65
2022/12/20 07:06:25;;;;;;;0.20;0.20;;;15.00;99.90;;;;;;5059378;28;20043;-66
2022/12/20 07:08:51;;;;;;;0.20;0.20;;;15.00;99.90;;;;;;5050626;28;20029;-65
2022/12/20 07:11:17;;;;;;;0.30;0.30;;;15.00;99.90;;;;;;5054284;28;20033;-66
2022/12/20 07:13:43;;;;;;;0.20;0.20;;;15.00;99.90;;;;;;5049976;28;20492;-66
2022/12/20 07:16:09;;;;;;;0.20;0.20;;;15.10;99.90;;;;;;5050640;28;20480;-66
2022/12/20 07:18:34;;;;;;;0.88;0.88;;;15.00;99.90;;;;;;5051216;28;20029;-65
2022/12/20 07:21:04;;;;;;;34.45;1.52;;;14.90;99.90;;;;;;5051777;28;20367;-65
2022/12/20 07:23:31;;;;;;;0.20;0.20;;;14.90;99.90;;;;;;5068695;28;20029;-66
2022/12/20 07:25:58;;;;;;;0.20;0.20;;;14.90;99.90;;;;;;5071311;28;20103;-67
2022/12/20 07:28:25;;;;;;;0.20;0.20;;;14.90;99.90;;;;;;5071388;28;20033;-67
2022/12/20 07:30:50;;;;;;;0.95;0.95;;;14.80;99.90;;;;;;5066809;28;20394;-65
2022/12/20 07:33:16;;;;;;;0.20;0.20;;;14.80;99.90;;;;;;5066192;28;20037;-67
2022/12/20 07:35:44;;;;;;;2.05;1.95;;;14.80;99.90;;;;;;5071132;28;20024;-66
2022/12/20 07:38:11;;;;;;;0.75;0.75;;;14.70;99.90;;;;;;5071070;28;20024;-66
2022/12/20 07:40:41;;;;;;;1.45;1.42;;;14.60;99.90;;;;;;5071317;28;20032;-67
2022/12/20 07:43:07;;;;;;;0.30;0.30;;;14.40;99.90;;;;;;5058536;28;20033;-66
2022/12/20 07:45:33;;;;;;;0.20;0.20;;;14.30;99.90;;;;;;5051189;28;20048;-67
2022/12/20 07:47:59;;;;;;;0.30;0.30;;;14.30;99.90;;;;;;5049810;28;20122;-66
2022/12/20 07:50:26;;;;;;;0.20;0.20;;;14.20;99.90;;;;;;5050055;28;20024;-66
2022/12/20 07:52:52;;;;;;;0.20;0.20;;;14.20;99.90;;;;;;5050797;28;20029;-66
2022/12/20 07:55:18;;;;;;;0.30;0.30;;;14.10;99.90;;;;;;5059781;28;20025;-66
2022/12/20 07:57:54;;;;;;;0.55;0.55;;;14.10;99.90;;;;;;5066997;28;20505;-67
2022/12/20 08:00:20;;;;;;;2.10;1.48;;;14.10;99.90;;;;;;5070903;28;20024;-66
2022/12/20 08:02:52;;;;;;;2.85;1.77;;;14.10;99.90;;;;;;5070757;28;20526;-66
2022/12/20 08:05:18;;;;;;;0.20;0.20;;;14.10;99.90;;;;;;5070701;28;20020;-66
2022/12/20 08:07:45;;;;;;;0.20;0.20;;;14.10;99.90;;;;;;5050877;28;20120;-65
2022/12/20 08:10:14;;;;;;;0.20;0.20;;;14.10;99.90;;;;;;5049245;28;20021;-67
2022/12/20 08:12:42;;;;;;;0.20;0.20;;;14.00;99.90;;;;;;5050591;28;20025;-63
2022/12/20 08:15:08;;;;;;;0.20;0.20;;;14.00;99.90;;;;;;5050881;28;20021;-63
2022/12/20 08:17:33;;;;;;;0.20;0.20;;;14.00;99.90;;;;;;5050928;28;20179;-63
2022/12/20 08:19:59;;;;;;;0.20;0.20;;;14.00;99.90;;;;;;5049636;28;20525;-63
2022/12/20 08:22:25;;;;;;;0.20;0.20;;;13.90;99.90;;;;;;5050515;28;20025;-64
2022/12/20 08:24:51;;;;;;;0.20;0.20;;;13.80;99.90;;;;;;5050647;28;20028;-64
2022/12/20 08:27:17;;;;;;;0.20;0.20;;;13.80;99.90;;;;;;5050854;28;20408;-62
2022/12/20 08:29:43;;;;;;;0.20;0.20;;;13.80;99.90;;;;;;5050423;28;20493;-63
2022/12/20 08:32:09;;;;;;;0.20;0.20;;;13.80;99.90;;;;;;5046943;28;20075;-64
2022/12/20 08:34:35;;;;;;;0.20;0.20;;;13.80;99.90;;;;;;5053423;28;20496;-64
2022/12/20 08:37:01;;;;;;;0.20;0.20;;;13.70;99.90;;;;;;5050265;28;20029;-63
2022/12/20 08:39:26;;;;;;;42.28;1.83;;;13.70;99.90;;;;;;5050142;28;20180;-64
2022/12/20 08:41:52;;;;;;;0.20;0.20;;;13.70;99.90;;;;;;5050440;28;20037;-63
2022/12/20 08:44:18;;;;;;;0.20;0.20;;;13.70;99.90;;;;;;5053757;28;20044;-64
2022/12/20 08:46:43;;;;;;;0.20;0.20;;;13.60;99.90;;;;;;5070356;28;20024;-64
2022/12/20 08:49:09;;;;;;;0.93;0.70;;;13.60;99.90;;;;;;5070856;28;20493;-64
2022/12/20 08:51:35;;;;;;;2.58;1.67;;;13.50;99.90;;;;;;5072694;28;20341;-65
2022/12/20 08:54:01;;;;;;;0.22;0.22;;;13.50;99.90;;;;;;5073694;28;20028;-64
2022/12/20 08:56:27;;;;;;;0.75;0.75;;;13.40;99.90;;;;;;5074155;28;20028;-64
2022/12/20 08:58:53;;;;;;;0.20;0.20;;;13.40;99.90;;;;;;5073903;28;20107;-64
2022/12/20 09:01:20;;;;;;;0.20;0.20;;;13.30;99.90;;;;;;5052730;28;20117;-64
2022/12/20 09:03:47;;;;;;;0.20;0.20;;;13.20;99.90;;;;;;5063035;28;20033;-64
2022/12/20 09:06:20;;;;;;;0.20;0.20;;;13.20;99.90;;;;;;5073915;28;20061;-65
2022/12/20 09:08:47;;;;;;;5.18;4.13;;;13.10;99.90;;;;;;5073084;28;20040;-64
2022/12/20 09:11:16;;;;;;;0.20;0.20;;;13.00;99.90;;;;;;5073880;28;20027;-64
2022/12/20 09:13:44;;;;;;;0.20;0.20;;;13.00;99.90;;;;;;5072591;28;20036;-66
2022/12/20 09:16:11;;;;;;;0.55;0.55;;;12.90;99.90;;;;;;5073781;28;20036;-64
2022/12/20 09:18:37;;;;;;;0.68;0.68;;;12.90;99.90;;;;;;5073569;28;20029;-65
2022/12/20 09:21:05;;;;;;;2.35;1.85;;;12.90;99.90;;;;;;5073458;28;20381;-65
2022/12/20 09:23:32;;;;;;;0.40;0.40;;;12.90;99.90;;;;;;5073576;28;20020;-63
2022/12/20 09:26:03;;;;;;;0.20;0.20;;;13.00;99.90;;;;;;5073612;28;20024;-64
2022/12/20 09:28:29;;;;;;;1.77;1.67;;;12.90;99.90;;;;;;5073475;28;20036;-64
2022/12/20 09:30:59;;;;;;;0.20;0.20;;;12.90;99.90;;;;;;5073614;28;20390;-64
2022/12/20 09:33:25;;;;;;;0.30;0.30;;;12.80;99.90;;;;;;5073444;28;20057;-63
2022/12/20 09:35:51;;;;;;;0.20;0.20;;;12.80;99.90;;;;;;5073427;28;20068;-65
2022/12/20 09:38:16;;;;;;;0.20;0.20;;;12.70;99.90;;;;;;5072140;28;20032;-62
2022/12/20 09:40:51;;;;;;;0.20;0.20;;;12.70;99.90;;;;;;5071993;28;20031;-63
2022/12/20 09:43:18;;;;;;;0.20;0.20;;;12.60;99.90;;;;;;5073365;28;20067;-63
2022/12/20 09:45:46;;;;;;;0.20;0.20;;;12.50;99.90;;;;;;5069847;28;20065;-63
2022/12/20 09:48:24;;;;;;;0.68;0.68;;;12.50;99.90;;;;;;5052989;28;20044;-64
2022/12/20 09:51:03;;;;;;;0.20;0.20;;;12.40;99.90;;;;;;5053280;28;20017;-63
2022/12/20 09:54:07;;;;;;;0.20;0.20;;;12.40;99.90;;;;;;5053061;28;20109;-62
2022/12/20 09:56:38;;;;;;;0.20;0.20;;;12.30;99.90;;;;;;5052930;28;20032;-64
2022/12/20 09:59:10;;;;;;;3.08;2.80;;;12.30;99.90;;;;;;5052896;28;20012;-63
2022/12/20 10:01:36;;;;;;;0.20;0.20;;;12.20;99.90;;;;;;5052662;28;20569;-64
2022/12/20 10:04:24;;;;;;;0.20;0.20;;;12.20;99.90;;;;;;5052980;28;20025;-63
2022/12/20 10:07:14;;;;;;;0.20;0.20;;;12.30;99.90;;;;;;5051526;28;20040;-63
2022/12/20 10:09:59;;;;;;;0.20;0.20;;;12.20;99.90;;;;;;5052403;28;20025;-64
2022/12/20 10:12:36;;;;;;;0.20;0.20;;;12.20;99.90;;;;;;5052678;28;20025;-64
2022/12/20 10:15:15;;;;;;;0.20;0.20;;;12.20;99.90;;;;;;5052660;28;20017;-63
2022/12/20 10:18:09;;;;;;;4.75;3.95;;;12.20;99.90;;;;;;5052409;28;20132;-63
2022/12/20 10:20:50;;;;;;;1.40;1.40;;;12.10;99.90;;;;;;5052419;28;20111;-64
2022/12/20 10:23:29;;;;;;;5.43;2.80;;;12.10;99.90;;;;;;5052552;28;20491;-63
2022/12/20 10:25:56;;;;;;;0.20;0.20;;;12.10;99.90;;;;;;5052433;28;20078;-63
2022/12/20 10:28:33;;;;;;;0.30;0.30;;;12.10;99.90;;;;;;5050734;28;20614;-63
2022/12/20 10:31:06;;;;;;;0.25;0.25;;;12.20;99.90;;;;;;5051097;28;20481;-62
2022/12/20 10:33:32;;;;;;;0.20;0.20;;;12.30;99.90;;;;;;5051090;28;20031;-63
2022/12/20 10:36:25;;;;;;;0.20;0.20;;;12.30;99.90;;;;;;5049576;28;20028;-63
2022/12/20 10:39:04;;;;;;;0.20;0.20;;;12.40;99.90;;;;;;5050897;28;20021;-62
2022/12/20 10:41:51;;;;;;;0.20;0.20;;;12.40;99.90;;;;;;5051248;28;20448;-63
2022/12/20 10:44:28;;;;;;;0.20;0.20;;;12.30;99.90;;;;;;5047253;28;20037;-62
2022/12/20 10:46:59;;;;;;;0.20;0.20;;;12.30;99.90;;;;;;5050711;28;20132;-62
2022/12/20 10:49:29;;;;;;;0.20;0.20;;;12.20;99.90;;;;;;5050862;28;20035;-63
2022/12/20 10:52:02;;;;;;;0.20;0.20;;;12.20;99.90;;;;;;5049120;28;20370;-63
2022/12/20 10:54:34;;;;;;;0.47;0.47;;;12.20;99.90;;;;;;5049139;28;20029;-62
2022/12/20 10:57:12;;;;;;;0.20;0.20;;;12.20;99.90;;;;;;5048074;28;20024;-63
2022/12/20 10:59:43;;;;;;;0.30;0.30;;;12.10;99.90;;;;;;5050421;28;20473;-63
2022/12/20 11:02:28;;;;;;;0.25;0.25;;;12.10;99.90;;;;;;5050293;28;20052;-63
2022/12/20 11:05:13;;;;;;;0.20;0.20;;;12.10;99.90;;;;;;5049905;28;20036;-62
2022/12/20 11:07:57;;;;;;;0.20;0.20;;;12.10;99.90;;;;;;5047586;28;20489;-61
2022/12/20 11:10:27;;;;;;;0.20;0.20;;;12.10;99.90;;;;;;5048094;28;20032;-62
2022/12/20 11:12:55;;;;;;;0.20;0.20;;;12.00;99.90;;;;;;5050497;28;20049;-62
2022/12/20 11:15:26;;;;;;;0.20;0.20;;;11.90;99.90;;;;;;5051420;28;20420;-63
2022/12/20 11:18:02;;;;;;;0.20;0.20;;;11.90;99.90;;;;;;5051391;28;20381;-64
2022/12/20 11:20:57;;;;;;;0.20;0.20;;;11.80;99.90;;;;;;5051562;28;20021;-64
2022/12/20 11:23:32;;;;;;;0.20;0.20;;;11.80;99.90;;;;;;5046425;28;20048;-64
2022/12/20 11:26:12;;;;;;;0.20;0.20;;;11.70;99.90;;;;;;5049967;28;20025;-62
2022/12/20 11:29:10;;;;;;;0.20;0.20;;;11.70;99.90;;;;;;5051156;28;20482;-64
2022/12/20 11:31:43;;;;;;;0.20;0.20;;;11.70;99.90;;;;;;5034219;28;20086;-64
2022/12/20 11:34:57;;;;;;;0.20;0.20;;;11.80;99.90;;;;;;5051179;28;20017;-64
2022/12/20 11:37:24;;;;;;;0.20;0.20;;;11.80;99.90;;;;;;5041634;28;20056;-64
2022/12/20 11:40:15;;;;;;;0.20;0.20;;;11.80;99.90;;;;;;5050072;28;20455;-63
2022/12/20 11:42:47;;;;;;;0.30;0.30;;;11.70;99.90;;;;;;5051226;28;20044;-63
2022/12/20 11:45:24;;;;;;;0.20;0.20;;;11.60;99.90;;;;;;5051093;28;20414;-64
2022/12/20 11:48:08;;;;;;;0.20;0.20;;;11.60;99.90;;;;;;5051036;28;20041;-64
2022/12/20 11:51:05;;;;;;;0.20;0.20;;;11.60;99.90;;;;;;5051025;28;20048;-64
2022/12/20 11:53:49;;;;;;;0.20;0.20;;;11.60;99.90;;;;;;5050902;28;20116;-63
2022/12/20 11:56:18;;;;;;;0.30;0.30;;;11.60;99.90;;;;;;5051246;28;20032;-63
2022/12/20 11:59:01;;;;;;;0.30;0.30;;;11.50;99.90;;;;;;5050905;28;20584;-64
2022/12/20 12:01:39;;;;;;;0.20;0.20;;;11.50;99.90;;;;;;5050660;28;20045;-64
2022/12/20 12:04:32;;;;;;;0.30;0.30;;;11.70;99.90;;;;;;5050886;28;20100;-63
2022/12/20 12:07:15;;;;;;;0.20;0.20;;;11.80;99.90;;;;;;5050936;28;20159;-62
2022/12/20 12:09:58;;;;;;;0.95;0.95;;;12.10;99.90;;;;;;5051053;28;20040;-63
2022/12/20 12:12:41;;;;;;;0.20;0.20;;;12.30;99.90;;;;;;5049641;28;20036;-64
2022/12/20 12:15:10;;;;;;;0.20;0.20;;;12.40;99.90;;;;;;5049691;28;20022;-64
2022/12/20 12:18:11;;;;;;;0.20;0.20;;;12.40;99.90;;;;;;5050862;28;20029;-64
2022/12/20 12:20:59;;;;;;;0.20;0.20;;;12.40;99.90;;;;;;5050345;28;20560;-64
2022/12/20 12:23:40;;;;;;;0.20;0.20;;;12.50;99.90;;;;;;5050824;28;20028;-64
2022/12/20 12:26:14;;;;;;;0.20;0.20;;;12.70;99.90;;;;;;5054411;28;20074;-63
2022/12/20 12:28:39;;;;;;;0.20;0.20;;;12.90;99.90;;;;;;5054498;28;20025;-64
2022/12/20 12:31:12;;;;;;;0.20;0.20;;;13.20;99.90;;;;;;5054832;28;20567;-64
2022/12/20 12:33:51;;;;;;;0.20;0.20;;;13.60;99.90;;;;;;5054724;28;20125;-63
2022/12/20 12:36:43;;;;;;;0.28;0.28;;;14.00;99.90;;;;;;5051595;28;20036;-68
2022/12/20 12:39:09;;;;;;;;;;;14.30;99.90;;;;;;5054291;28;20483;-66
2022/12/20 12:41:38;;;;;;;0.20;0.20;;;14.50;99.90;;;;;;5054083;28;20365;-64
2022/12/20 12:44:28;;;;;;;0.20;0.20;;;14.30;99.90;;;;;;5054336;28;20496;-66
2022/12/20 12:47:00;;;;;;;0.20;0.20;;;14.40;99.90;;;;;;5054559;28;20033;-64
2022/12/20 12:49:29;;;;;;;0.20;0.20;;;14.70;99.90;;;;;;5054216;28;20127;-66
2022/12/20 12:51:58;;;;;;;0.20;0.20;;;14.20;99.90;;;;;;5052845;28;20039;-65
2022/12/20 12:54:26;;;;;;;0.20;0.20;;;13.70;99.90;;;;;;5053481;28;20021;-66
2022/12/20 12:56:58;;;;;;;0.25;0.25;;;13.40;99.90;;;;;;5049260;28;20039;-65
2022/12/20 12:59:33;;;;;;;0.20;0.20;;;13.10;99.90;;;;;;5052466;28;20049;-65
2022/12/20 13:02:04;;;;;;;0.20;0.20;;;13.10;99.90;;;;;;5033842;28;20053;-64
2022/12/20 13:04:50;;;;;;;;;;;13.10;99.90;;;;;;5048936;28;20051;-64
2022/12/20 13:07:34;;;;;;;0.20;0.20;;;12.70;99.90;;;;;;5049554;28;19912;-63